CheckWX is a tool to help pilots better visualize weather data.  It is not intended as a substitute for an official pre-flight weather briefing.

20:10:41 UTC

KTCM METAR
McChord Field (Joint Base Lewis-McChord) Airport
Tacoma, Washington, USA
Current

13 mins ago

KTCM 231958Z AUTO 26011KT 10SM SCT024 BKN032 OVC043 14/13 A3020 RMK AO2 RAE03 SLP231 P0000 T01390133 RVRNO CHINO RWY34 $
Observed
Apr-23 @ 19:58 UTC
Wind
  • 260° at 11 KTS
Visibility
10 SM
Flight Rules
VFR
Cloud Levels
  • Scattered at 2,400' AGL
  • Broken at 3,200' AGL
  • Overcast at 4,300' AGL
Temperature
14°C / 57°F
Dewpoint
13°C / 55°F
Humidity
94%
Altimeter
30.2" Hg
Pressure
1022.72 hPa
Current Rain
0.01"
Previous

1 hour ago

KTCM 231903Z AUTO 25007KT 10SM FEW012 BKN026 OVC037 13/13 A3019 RMK AO2 RAE03 SLP228 RVRNO CHINO RWY34 $
Observed
Apr-23 @ 19:03 UTC
Wind
  • 250° at 7 KTS
Visibility
10 SM
Flight Rules
MVFR
Cloud Levels
  • Few at 1,200' AGL
  • Broken at 2,600' AGL
  • Overcast at 3,700' AGL
Temperature
13°C / 55°F
Dewpoint
13°C / 55°F
Humidity
100%
Altimeter
30.19" Hg
Pressure
1022.32 hPa
Previous

1 hour ago

KTCM 231850Z AUTO 26008KT 10SM -RA FEW014 BKN022 BKN029 OVC047 14/14 A3020 RMK AO2 RAB50 SLP231 RVRNO CHINO RWY34 $
Observed
Apr-23 @ 18:50 UTC
Wind
  • 260° at 8 KTS
Visibility
10 SM
Flight Rules
MVFR
Conditions
Light Rain
Cloud Levels
  • Few at 1,400' AGL
  • Broken at 2,200' AGL
  • Broken at 2,900' AGL
  • Overcast at 4,700' AGL
Temperature
14°C / 57°F
Dewpoint
14°C / 57°F
Humidity
100%
Altimeter
30.2" Hg
Pressure
1022.72 hPa